Wesson, MS

3:33 AM CST on December 08, 2016 (GMT -0600)
Downtown (Perkins Bldg) | | Change Station

Elev 473 ft 31.58 °N, 90.44 °W | Updated 1 minute ago

Overcast
Overcast
48.4 °F
Feels Like 48 °F
N
0.0
Wind Variable Wind from ENE

Today
High -- | Low -- °F
--% Chance of Precip.
Yesterday
High -- | Low -- °F
Precip. -- in
Pressure 30.22 in
Visibility 10.0 miles
Clouds Few 2100 ft
Overcast 3900 ft
Windchill 48 °F
Dew Point 45 °F
Humidity 87%
Rainfall 0.00 in
Snow Depth Not available.
6:49 AM 4:58 PM
First Quarter, 61% visible
METAR KMCB 080853Z AUTO 01006KT 10SM FEW021 OVC039 09/07 A3022 RMK AO2 SLP232 T00940072 51016
Pressure 30.22 in
Visibility 10.0 miles
Clouds Few 2100 ft
Overcast 3900 ft
Windchill 48 °F
Dew Point 45 °F
Humidity 87%
Rainfall 0.00 in
Snow Depth Not available.
6:49 AM 4:58 PM
First Quarter, 61% visible
METAR KMCB 080853Z AUTO 01006KT 10SM FEW021 OVC039 09/07 A3022 RMK AO2 SLP232 T00940072 51016

10-Day Weather Forecast

Almanac

Astronomy

Dec. 08, 2016 Rise Set
Actual Time
Civil Twilight
Nautical Twilight
Astronomical Twilight
Moon
Length of Visible Light
Length of Day
Tomorrow will be .
, % of the Moon is Illuminated

Today's Extremes

State Highs State Lows

Community

WunderPhotos

Upload Photos

1,956,259 photos uploaded!

WunderBlog® & News

Nearby

Air Quality

  Air Quality AQ Index Pollutant
Not available.

Snow Depth

Station Depth Elevation

Earthquake Activity

City Distance Mag. Time & Date
Minimum magnitude displayed is 2.5.

Coastal Water Temperatures

Place Temperature

Stations

Nearby Weather Stations

Station Location Temp. Windchill Dew Point Humidity Wind Precip. Elev Updated Type
                   

Watches & Warnings

There are currently no watches in effect.